sensor_id;sensor_type;location;lat;lon;timestamp;temperature;humidity
68257;DHT22;55069;51.568;4.656;2023-04-28T00:01:31;9.87;70.66
68257;DHT22;55069;51.568;4.656;2023-04-28T00:03:57;9.83;70.85
68257;DHT22;55069;51.568;4.656;2023-04-28T00:06:23;9.76;70.59
68257;DHT22;55069;51.568;4.656;2023-04-28T00:08:49;9.72;70.11
68257;DHT22;55069;51.568;4.656;2023-04-28T00:11:14;9.69;70.53
68257;DHT22;55069;51.568;4.656;2023-04-28T00:13:40;9.67;70.41
68257;DHT22;55069;51.568;4.656;2023-04-28T00:16:06;9.67;71.33
68257;DHT22;55069;51.568;4.656;2023-04-28T00:18:31;9.66;71.17
68257;DHT22;55069;51.568;4.656;2023-04-28T00:20:57;9.66;69.95
68257;DHT22;55069;51.568;4.656;2023-04-28T00:23:23;9.72;70.21
68257;DHT22;55069;51.568;4.656;2023-04-28T00:25:53;9.70;70.63
68257;DHT22;55069;51.568;4.656;2023-04-28T00:28:20;9.63;70.46
68257;DHT22;55069;51.568;4.656;2023-04-28T00:30:46;9.63;70.05
68257;DHT22;55069;51.568;4.656;2023-04-28T00:33:12;9.56;70.23
68257;DHT22;55069;51.568;4.656;2023-04-28T00:35:39;9.56;70.55
68257;DHT22;55069;51.568;4.656;2023-04-28T00:38:06;9.57;71.21
68257;DHT22;55069;51.568;4.656;2023-04-28T00:40:36;9.56;71.63
68257;DHT22;55069;51.568;4.656;2023-04-28T00:43:02;9.56;71.30
68257;DHT22;55069;51.568;4.656;2023-04-28T00:45:28;9.56;71.79
68257;DHT22;55069;51.568;4.656;2023-04-28T00:47:55;9.62;71.46
68257;DHT22;55069;51.568;4.656;2023-04-28T00:50:24;9.55;71.75
68257;DHT22;55069;51.568;4.656;2023-04-28T00:52:51;9.55;70.96
68257;DHT22;55069;51.568;4.656;2023-04-28T00:55:17;9.63;70.97
68257;DHT22;55069;51.568;4.656;2023-04-28T00:57:44;9.59;70.77
68257;DHT22;55069;51.568;4.656;2023-04-28T01:00:10;9.55;70.40
68257;DHT22;55069;51.568;4.656;2023-04-28T01:02:36;9.55;71.44
68257;DHT22;55069;51.568;4.656;2023-04-28T01:05:02;9.55;72.35
68257;DHT22;55069;51.568;4.656;2023-04-28T01:07:28;9.59;71.89
68257;DHT22;55069;51.568;4.656;2023-04-28T01:09:54;9.57;71.47
68257;DHT22;55069;51.568;4.656;2023-04-28T01:12:24;9.56;71.55
68257;DHT22;55069;51.568;4.656;2023-04-28T01:14:53;9.52;71.10
68257;DHT22;55069;51.568;4.656;2023-04-28T01:17:18;9.53;72.07
68257;DHT22;55069;51.568;4.656;2023-04-28T01:19:45;9.56;72.19
68257;DHT22;55069;51.568;4.656;2023-04-28T01:22:11;9.56;72.91
68257;DHT22;55069;51.568;4.656;2023-04-28T01:24:39;9.50;71.43
68257;DHT22;55069;51.568;4.656;2023-04-28T01:27:06;9.52;72.48
68257;DHT22;55069;51.568;4.656;2023-04-28T01:29:32;9.57;72.51
68257;DHT22;55069;51.568;4.656;2023-04-28T01:31:57;9.53;72.47
68257;DHT22;55069;51.568;4.656;2023-04-28T01:34:23;9.55;71.97
68257;DHT22;55069;51.568;4.656;2023-04-28T01:36:49;9.56;73.36
68257;DHT22;55069;51.568;4.656;2023-04-28T01:39:15;9.60;73.48
68257;DHT22;55069;51.568;4.656;2023-04-28T01:41:41;9.62;71.90
68257;DHT22;55069;51.568;4.656;2023-04-28T01:44:06;9.62;72.87
68257;DHT22;55069;51.568;4.656;2023-04-28T01:46:33;9.62;72.66
68257;DHT22;55069;51.568;4.656;2023-04-28T01:48:59;9.57;73.32
68257;DHT22;55069;51.568;4.656;2023-04-28T01:51:25;9.59;73.07
68257;DHT22;55069;51.568;4.656;2023-04-28T01:53:51;9.57;72.98
68257;DHT22;55069;51.568;4.656;2023-04-28T01:56:17;9.55;73.16
68257;DHT22;55069;51.568;4.656;2023-04-28T01:58:43;9.52;72.92
68257;DHT22;55069;51.568;4.656;2023-04-28T02:01:08;9.55;72.63
68257;DHT22;55069;51.568;4.656;2023-04-28T02:03:34;9.55;72.70
68257;DHT22;55069;51.568;4.656;2023-04-28T02:06:01;9.56;72.47
68257;DHT22;55069;51.568;4.656;2023-04-28T02:08:27;9.50;72.49
68257;DHT22;55069;51.568;4.656;2023-04-28T02:10:52;9.49;72.79
68257;DHT22;55069;51.568;4.656;2023-04-28T02:13:19;9.49;73.47
68257;DHT22;55069;51.568;4.656;2023-04-28T02:15:45;9.49;72.57
68257;DHT22;55069;51.568;4.656;2023-04-28T02:18:11;9.49;72.73
68257;DHT22;55069;51.568;4.656;2023-04-28T02:20:39;9.43;72.65
68257;DHT22;55069;51.568;4.656;2023-04-28T02:23:07;9.39;72.86
68257;DHT22;55069;51.568;4.656;2023-04-28T02:25:33;9.31;73.34
68257;DHT22;55069;51.568;4.656;2023-04-28T02:27:58;9.24;73.74
68257;DHT22;55069;51.568;4.656;2023-04-28T02:30:25;9.21;73.27
68257;DHT22;55069;51.568;4.656;2023-04-28T02:32:50;9.18;73.77
68257;DHT22;55069;51.568;4.656;2023-04-28T02:35:16;9.15;73.98
68257;DHT22;55069;51.568;4.656;2023-04-28T02:37:42;9.18;73.98
68257;DHT22;55069;51.568;4.656;2023-04-28T02:40:08;9.18;74.03
68257;DHT22;55069;51.568;4.656;2023-04-28T02:42:33;9.18;74.37
68257;DHT22;55069;51.568;4.656;2023-04-28T02:44:59;9.21;74.02
68257;DHT22;55069;51.568;4.656;2023-04-28T02:47:24;9.19;74.49
68257;DHT22;55069;51.568;4.656;2023-04-28T02:49:50;9.24;74.30
68257;DHT22;55069;51.568;4.656;2023-04-28T02:52:16;9.24;74.64
68257;DHT22;55069;51.568;4.656;2023-04-28T02:54:41;9.24;74.57
68257;DHT22;55069;51.568;4.656;2023-04-28T02:57:07;9.27;74.77
68257;DHT22;55069;51.568;4.656;2023-04-28T02:59:32;9.28;74.33
68257;DHT22;55069;51.568;4.656;2023-04-28T03:01:59;9.34;74.04
68257;DHT22;55069;51.568;4.656;2023-04-28T03:04:25;9.28;74.21
68257;DHT22;55069;51.568;4.656;2023-04-28T03:06:51;9.34;74.48
68257;DHT22;55069;51.568;4.656;2023-04-28T03:09:17;9.39;74.48
68257;DHT22;55069;51.568;4.656;2023-04-28T03:11:43;9.35;74.55
68257;DHT22;55069;51.568;4.656;2023-04-28T03:14:08;9.38;74.77
68257;DHT22;55069;51.568;4.656;2023-04-28T03:16:34;9.36;74.53
68257;DHT22;55069;51.568;4.656;2023-04-28T03:19:00;9.34;74.30
68257;DHT22;55069;51.568;4.656;2023-04-28T03:21:25;9.34;74.90
68257;DHT22;55069;51.568;4.656;2023-04-28T03:23:52;9.31;74.49
68257;DHT22;55069;51.568;4.656;2023-04-28T03:26:18;9.38;74.39
68257;DHT22;55069;51.568;4.656;2023-04-28T03:28:44;9.40;74.75
68257;DHT22;55069;51.568;4.656;2023-04-28T03:31:10;9.45;75.14
68257;DHT22;55069;51.568;4.656;2023-04-28T03:33:36;9.45;75.03
68257;DHT22;55069;51.568;4.656;2023-04-28T03:36:01;9.45;74.85
68257;DHT22;55069;51.568;4.656;2023-04-28T03:38:27;9.43;75.17
68257;DHT22;55069;51.568;4.656;2023-04-28T03:40:53;9.42;74.93
68257;DHT22;55069;51.568;4.656;2023-04-28T03:43:57;9.42;75.12
68257;DHT22;55069;51.568;4.656;2023-04-28T03:46:34;9.48;75.41
68257;DHT22;55069;51.568;4.656;2023-04-28T03:49:01;9.45;75.43
68257;DHT22;55069;51.568;4.656;2023-04-28T03:51:28;9.48;75.27
68257;DHT22;55069;51.568;4.656;2023-04-28T03:53:54;9.46;76.06
68257;DHT22;55069;51.568;4.656;2023-04-28T03:56:19;9.49;75.32
68257;DHT22;55069;51.568;4.656;2023-04-28T03:58:46;9.52;75.76
68257;DHT22;55069;51.568;4.656;2023-04-28T04:01:11;9.52;75.72
68257;DHT22;55069;51.568;4.656;2023-04-28T04:03:37;9.52;76.10
68257;DHT22;55069;51.568;4.656;2023-04-28T04:06:04;9.52;76.55
68257;DHT22;55069;51.568;4.656;2023-04-28T04:08:30;9.49;76.55
68257;DHT22;55069;51.568;4.656;2023-04-28T04:10:56;9.48;76.32
68257;DHT22;55069;51.568;4.656;2023-04-28T04:13:22;9.55;76.62
68257;DHT22;55069;51.568;4.656;2023-04-28T04:15:48;9.53;76.51
68257;DHT22;55069;51.568;4.656;2023-04-28T04:18:15;9.49;76.82
68257;DHT22;55069;51.568;4.656;2023-04-28T04:21:01;9.56;76.34
68257;DHT22;55069;51.568;4.656;2023-04-28T04:23:27;9.56;76.30
68257;DHT22;55069;51.568;4.656;2023-04-28T04:25:53;9.56;77.36
68257;DHT22;55069;51.568;4.656;2023-04-28T04:28:19;9.55;77.24
68257;DHT22;55069;51.568;4.656;2023-04-28T04:30:45;9.53;77.52
68257;DHT22;55069;51.568;4.656;2023-04-28T04:33:10;9.57;77.88
68257;DHT22;55069;51.568;4.656;2023-04-28T04:35:36;9.53;77.96
68257;DHT22;55069;51.568;4.656;2023-04-28T04:38:02;9.57;77.99
68257;DHT22;55069;51.568;4.656;2023-04-28T04:40:28;9.55;77.87
68257;DHT22;55069;51.568;4.656;2023-04-28T04:42:54;9.56;78.23
68257;DHT22;55069;51.568;4.656;2023-04-28T04:45:20;9.57;78.14
68257;DHT22;55069;51.568;4.656;2023-04-28T04:47:47;9.62;78.01
68257;DHT22;55069;51.568;4.656;2023-04-28T04:50:13;9.63;77.98
68257;DHT22;55069;51.568;4.656;2023-04-28T04:52:39;9.67;77.68
68257;DHT22;55069;51.568;4.656;2023-04-28T04:55:06;9.72;78.49
68257;DHT22;55069;51.568;4.656;2023-04-28T04:57:32;9.69;78.41
68257;DHT22;55069;51.568;4.656;2023-04-28T05:00:07;9.75;77.85
68257;DHT22;55069;51.568;4.656;2023-04-28T05:02:34;9.76;78.31
68257;DHT22;55069;51.568;4.656;2023-04-28T05:05:02;9.77;78.13
68257;DHT22;55069;51.568;4.656;2023-04-28T05:07:28;9.84;77.97
68257;DHT22;55069;51.568;4.656;2023-04-28T05:09:54;9.83;78.37
68257;DHT22;55069;51.568;4.656;2023-04-28T05:12:20;9.83;78.96
68257;DHT22;55069;51.568;4.656;2023-04-28T05:14:45;9.86;79.07
68257;DHT22;55069;51.568;4.656;2023-04-28T05:17:11;9.93;78.37
68257;DHT22;55069;51.568;4.656;2023-04-28T05:19:39;9.97;78.46
68257;DHT22;55069;51.568;4.656;2023-04-28T05:22:05;9.96;78.63
68257;DHT22;55069;51.568;4.656;2023-04-28T05:24:34;9.96;78.75
68257;DHT22;55069;51.568;4.656;2023-04-28T05:27:01;9.98;78.70
68257;DHT22;55069;51.568;4.656;2023-04-28T05:29:27;10.01;79.40
68257;DHT22;55069;51.568;4.656;2023-04-28T05:31:52;10.03;79.17
68257;DHT22;55069;51.568;4.656;2023-04-28T05:34:20;10.04;79.69
68257;DHT22;55069;51.568;4.656;2023-04-28T05:36:46;10.03;79.80
68257;DHT22;55069;51.568;4.656;2023-04-28T05:39:12;10.04;80.72
68257;DHT22;55069;51.568;4.656;2023-04-28T05:41:39;10.11;81.62
68257;DHT22;55069;51.568;4.656;2023-04-28T05:44:05;10.22;81.89
68257;DHT22;55069;51.568;4.656;2023-04-28T05:46:31;10.27;82.38
68257;DHT22;55069;51.568;4.656;2023-04-28T05:48:58;10.37;83.23
68257;DHT22;55069;51.568;4.656;2023-04-28T05:51:24;10.41;83.54
68257;DHT22;55069;51.568;4.656;2023-04-28T05:53:51;10.46;83.58
68257;DHT22;55069;51.568;4.656;2023-04-28T05:56:19;10.61;83.69
68257;DHT22;55069;51.568;4.656;2023-04-28T05:58:45;10.52;84.51
68257;DHT22;55069;51.568;4.656;2023-04-28T06:01:12;10.45;84.78
68257;DHT22;55069;51.568;4.656;2023-04-28T06:03:38;10.45;84.97
68257;DHT22;55069;51.568;4.656;2023-04-28T06:06:07;10.41;85.46
68257;DHT22;55069;51.568;4.656;2023-04-28T06:08:33;10.44;85.57
68257;DHT22;55069;51.568;4.656;2023-04-28T06:10:59;10.45;86.41
68257;DHT22;55069;51.568;4.656;2023-04-28T06:13:24;10.42;86.61
68257;DHT22;55069;51.568;4.656;2023-04-28T06:15:50;10.38;86.79
68257;DHT22;55069;51.568;4.656;2023-04-28T06:18:16;10.31;87.00
68257;DHT22;55069;51.568;4.656;2023-04-28T06:20:41;10.42;87.08
68257;DHT22;55069;51.568;4.656;2023-04-28T06:23:08;10.52;87.56
68257;DHT22;55069;51.568;4.656;2023-04-28T06:25:35;10.56;87.83
68257;DHT22;55069;51.568;4.656;2023-04-28T06:28:01;10.63;88.05
68257;DHT22;55069;51.568;4.656;2023-04-28T06:30:27;10.62;88.22
68257;DHT22;55069;51.568;4.656;2023-04-28T06:32:53;10.65;87.57
68257;DHT22;55069;51.568;4.656;2023-04-28T06:35:21;10.65;88.00
68257;DHT22;55069;51.568;4.656;2023-04-28T06:37:46;10.76;88.57
68257;DHT22;55069;51.568;4.656;2023-04-28T06:40:13;10.84;88.54
68257;DHT22;55069;51.568;4.656;2023-04-28T06:42:44;10.96;88.44
68257;DHT22;55069;51.568;4.656;2023-04-28T06:45:14;11.06;88.52
68257;DHT22;55069;51.568;4.656;2023-04-28T06:47:40;11.06;88.20
68257;DHT22;55069;51.568;4.656;2023-04-28T06:50:08;11.03;88.54
68257;DHT22;55069;51.568;4.656;2023-04-28T06:52:35;10.99;89.23
68257;DHT22;55069;51.568;4.656;2023-04-28T06:55:00;11.03;88.86
68257;DHT22;55069;51.568;4.656;2023-04-28T06:57:28;11.03;88.72
68257;DHT22;55069;51.568;4.656;2023-04-28T06:59:54;11.13;88.73
68257;DHT22;55069;51.568;4.656;2023-04-28T07:02:20;11.13;88.71
68257;DHT22;55069;51.568;4.656;2023-04-28T07:04:45;11.10;89.10
68257;DHT22;55069;51.568;4.656;2023-04-28T07:07:12;11.14;89.00
68257;DHT22;55069;51.568;4.656;2023-04-28T07:09:37;11.16;89.12
68257;DHT22;55069;51.568;4.656;2023-04-28T07:12:03;11.18;89.13
68257;DHT22;55069;51.568;4.656;2023-04-28T07:14:29;11.23;89.43
68257;DHT22;55069;51.568;4.656;2023-04-28T07:16:55;11.24;89.85
68257;DHT22;55069;51.568;4.656;2023-04-28T07:19:20;11.30;89.80
68257;DHT22;55069;51.568;4.656;2023-04-28T07:21:46;11.35;89.90
68257;DHT22;55069;51.568;4.656;2023-04-28T07:24:11;11.38;90.04
68257;DHT22;55069;51.568;4.656;2023-04-28T07:26:37;11.42;90.11
68257;DHT22;55069;51.568;4.656;2023-04-28T07:29:02;11.61;90.19
68257;DHT22;55069;51.568;4.656;2023-04-28T07:31:28;11.86;90.11
68257;DHT22;55069;51.568;4.656;2023-04-28T07:33:54;11.93;89.98
68257;DHT22;55069;51.568;4.656;2023-04-28T07:36:20;11.95;89.80
68257;DHT22;55069;51.568;4.656;2023-04-28T07:38:45;12.00;89.44
68257;DHT22;55069;51.568;4.656;2023-04-28T07:41:11;12.02;89.58
68257;DHT22;55069;51.568;4.656;2023-04-28T07:43:37;12.05;89.74
68257;DHT22;55069;51.568;4.656;2023-04-28T07:46:05;12.09;89.56
68257;DHT22;55069;51.568;4.656;2023-04-28T07:48:31;12.22;89.06
68257;DHT22;55069;51.568;4.656;2023-04-28T07:50:56;12.34;89.44
68257;DHT22;55069;51.568;4.656;2023-04-28T07:53:22;12.44;89.33
68257;DHT22;55069;51.568;4.656;2023-04-28T07:55:48;12.50;89.12
68257;DHT22;55069;51.568;4.656;2023-04-28T07:58:13;12.53;88.60
68257;DHT22;55069;51.568;4.656;2023-04-28T08:00:39;12.54;88.35
68257;DHT22;55069;51.568;4.656;2023-04-28T08:03:05;12.61;88.56
68257;DHT22;55069;51.568;4.656;2023-04-28T08:05:30;12.69;88.53
68257;DHT22;55069;51.568;4.656;2023-04-28T08:07:56;12.72;88.69
68257;DHT22;55069;51.568;4.656;2023-04-28T08:10:22;12.91;88.70
68257;DHT22;55069;51.568;4.656;2023-04-28T08:12:48;12.89;88.84
68257;DHT22;55069;51.568;4.656;2023-04-28T08:15:13;12.89;88.70
68257;DHT22;55069;51.568;4.656;2023-04-28T08:17:39;12.87;89.09
68257;DHT22;55069;51.568;4.656;2023-04-28T08:20:05;12.92;88.79
68257;DHT22;55069;51.568;4.656;2023-04-28T08:22:31;12.96;88.98
68257;DHT22;55069;51.568;4.656;2023-04-28T08:24:57;12.93;89.10
68257;DHT22;55069;51.568;4.656;2023-04-28T08:27:22;12.98;88.68
68257;DHT22;55069;51.568;4.656;2023-04-28T08:29:50;12.98;88.86
68257;DHT22;55069;51.568;4.656;2023-04-28T08:32:16;13.00;89.07
68257;DHT22;55069;51.568;4.656;2023-04-28T08:34:42;13.00;89.39
68257;DHT22;55069;51.568;4.656;2023-04-28T08:37:07;13.06;89.47
68257;DHT22;55069;51.568;4.656;2023-04-28T08:39:33;13.06;89.18
68257;DHT22;55069;51.568;4.656;2023-04-28T08:42:02;13.03;89.15
68257;DHT22;55069;51.568;4.656;2023-04-28T08:44:36;13.08;89.78
68257;DHT22;55069;51.568;4.656;2023-04-28T08:47:08;13.03;90.09
68257;DHT22;55069;51.568;4.656;2023-04-28T08:49:35;13.12;90.32
68257;DHT22;55069;51.568;4.656;2023-04-28T08:52:02;13.08;90.32
68257;DHT22;55069;51.568;4.656;2023-04-28T08:54:30;13.12;90.50
68257;DHT22;55069;51.568;4.656;2023-04-28T08:56:57;12.93;90.73
68257;DHT22;55069;51.568;4.656;2023-04-28T08:59:23;12.99;91.21
68257;DHT22;55069;51.568;4.656;2023-04-28T09:01:49;12.85;91.34
68257;DHT22;55069;51.568;4.656;2023-04-28T09:04:18;12.89;91.80
68257;DHT22;55069;51.568;4.656;2023-04-28T09:06:44;12.87;91.90
68257;DHT22;55069;51.568;4.656;2023-04-28T09:09:29;12.79;92.23
68257;DHT22;55069;51.568;4.656;2023-04-28T09:12:00;12.87;92.27
68257;DHT22;55069;51.568;4.656;2023-04-28T09:14:27;12.89;92.32
68257;DHT22;55069;51.568;4.656;2023-04-28T09:16:53;12.87;92.41
68257;DHT22;55069;51.568;4.656;2023-04-28T09:19:19;12.84;91.96
68257;DHT22;55069;51.568;4.656;2023-04-28T09:21:55;12.93;91.72
68257;DHT22;55069;51.568;4.656;2023-04-28T09:24:28;12.92;91.44
68257;DHT22;55069;51.568;4.656;2023-04-28T09:26:55;12.98;91.17
68257;DHT22;55069;51.568;4.656;2023-04-28T09:29:20;12.98;90.96
68257;DHT22;55069;51.568;4.656;2023-04-28T09:31:46;12.95;91.15
68257;DHT22;55069;51.568;4.656;2023-04-28T09:34:11;12.95;91.35
68257;DHT22;55069;51.568;4.656;2023-04-28T09:36:37;12.88;91.19
68257;DHT22;55069;51.568;4.656;2023-04-28T09:39:03;12.99;91.25
68257;DHT22;55069;51.568;4.656;2023-04-28T09:44:14;12.87;91.40
68257;DHT22;55069;51.568;4.656;2023-04-28T09:46:40;12.87;91.28
68257;DHT22;55069;51.568;4.656;2023-04-28T09:49:06;12.91;91.16
68257;DHT22;55069;51.568;4.656;2023-04-28T09:51:33;13.05;90.55
68257;DHT22;55069;51.568;4.656;2023-04-28T09:54:00;13.26;89.87
68257;DHT22;55069;51.568;4.656;2023-04-28T09:56:31;13.63;89.32
68257;DHT22;55069;51.568;4.656;2023-04-28T09:58:58;13.85;88.28
68257;DHT22;55069;51.568;4.656;2023-04-28T10:01:26;13.95;87.40
68257;DHT22;55069;51.568;4.656;2023-04-28T10:03:53;14.22;86.83
68257;DHT22;55069;51.568;4.656;2023-04-28T10:06:20;13.82;87.10
68257;DHT22;55069;51.568;4.656;2023-04-28T10:08:47;13.79;86.52
68257;DHT22;55069;51.568;4.656;2023-04-28T10:11:15;13.85;86.71
68257;DHT22;55069;51.568;4.656;2023-04-28T10:13:41;13.94;86.47
68257;DHT22;55069;51.568;4.656;2023-04-28T10:16:09;13.95;86.16
68257;DHT22;55069;51.568;4.656;2023-04-28T10:18:36;14.01;86.36
68257;DHT22;55069;51.568;4.656;2023-04-28T10:21:02;13.85;86.38
68257;DHT22;55069;51.568;4.656;2023-04-28T10:26:18;13.71;87.13
68257;DHT22;55069;51.568;4.656;2023-04-28T10:28:46;13.70;87.37
68257;DHT22;55069;51.568;4.656;2023-04-28T10:31:19;13.50;87.57
68257;DHT22;55069;51.568;4.656;2023-04-28T10:33:46;13.42;88.86
68257;DHT22;55069;51.568;4.656;2023-04-28T10:39:11;13.47;89.36
68257;DHT22;55069;51.568;4.656;2023-04-28T10:41:37;13.44;89.67
68257;DHT22;55069;51.568;4.656;2023-04-28T10:47:07;13.20;90.17
68257;DHT22;55069;51.568;4.656;2023-04-28T11:00:54;12.96;91.63
68257;DHT22;55069;51.568;4.656;2023-04-28T11:06:31;13.05;90.45
68257;DHT22;55069;51.568;4.656;2023-04-28T11:11:29;13.10;90.20
68257;DHT22;55069;51.568;4.656;2023-04-28T11:19:27;13.19;89.29
68257;DHT22;55069;51.568;4.656;2023-04-28T11:21:55;13.09;89.34
68257;DHT22;55069;51.568;4.656;2023-04-28T11:24:21;13.27;89.03
68257;DHT22;55069;51.568;4.656;2023-04-28T11:26:48;13.42;88.23
68257;DHT22;55069;51.568;4.656;2023-04-28T11:29:13;13.66;87.78
68257;DHT22;55069;51.568;4.656;2023-04-28T11:31:40;13.88;87.06
68257;DHT22;55069;51.568;4.656;2023-04-28T11:34:18;14.02;85.79
68257;DHT22;55069;51.568;4.656;2023-04-28T11:36:44;14.33;85.15
68257;DHT22;55069;51.568;4.656;2023-04-28T11:39:12;14.30;84.12
68257;DHT22;55069;51.568;4.656;2023-04-28T11:41:39;14.49;83.53
68257;DHT22;55069;51.568;4.656;2023-04-28T11:44:22;14.36;83.12
68257;DHT22;55069;51.568;4.656;2023-04-28T11:46:55;14.55;82.86
68257;DHT22;55069;51.568;4.656;2023-04-28T11:49:31;14.60;83.05
68257;DHT22;55069;51.568;4.656;2023-04-28T11:52:05;14.83;82.76
68257;DHT22;55069;51.568;4.656;2023-04-28T11:54:31;15.01;81.67
68257;DHT22;55069;51.568;4.656;2023-04-28T11:56:58;15.36;80.85
68257;DHT22;55069;51.568;4.656;2023-04-28T11:59:27;15.65;80.43
68257;DHT22;55069;51.568;4.656;2023-04-28T12:01:55;15.38;80.31
68257;DHT22;55069;51.568;4.656;2023-04-28T12:09:28;14.81;81.63
68257;DHT22;55069;51.568;4.656;2023-04-28T12:11:59;14.50;81.60
68257;DHT22;55069;51.568;4.656;2023-04-28T12:14:26;14.81;81.10
68257;DHT22;55069;51.568;4.656;2023-04-28T12:16:52;14.85;81.66
68257;DHT22;55069;51.568;4.656;2023-04-28T12:19:18;14.85;80.99
68257;DHT22;55069;51.568;4.656;2023-04-28T12:22:01;14.81;80.63
68257;DHT22;55069;51.568;4.656;2023-04-28T12:24:27;14.79;81.47
68257;DHT22;55069;51.568;4.656;2023-04-28T12:26:53;14.88;81.79
68257;DHT22;55069;51.568;4.656;2023-04-28T12:29:36;15.05;81.69
68257;DHT22;55069;51.568;4.656;2023-04-28T12:32:09;14.95;81.71
68257;DHT22;55069;51.568;4.656;2023-04-28T12:34:35;14.73;82.48
68257;DHT22;55069;51.568;4.656;2023-04-28T12:37:02;14.70;82.44
68257;DHT22;55069;51.568;4.656;2023-04-28T12:39:28;14.60;83.72
68257;DHT22;55069;51.568;4.656;2023-04-28T12:41:53;14.33;84.66
68257;DHT22;55069;51.568;4.656;2023-04-28T12:44:20;14.36;84.22
68257;DHT22;55069;51.568;4.656;2023-04-28T12:46:47;14.18;85.30
68257;DHT22;55069;51.568;4.656;2023-04-28T12:49:13;14.25;84.66
68257;DHT22;55069;51.568;4.656;2023-04-28T12:51:40;14.76;83.84
68257;DHT22;55069;51.568;4.656;2023-04-28T12:54:06;14.98;83.76
68257;DHT22;55069;51.568;4.656;2023-04-28T12:56:31;14.87;83.27
68257;DHT22;55069;51.568;4.656;2023-04-28T12:58:59;14.43;84.69
68257;DHT22;55069;51.568;4.656;2023-04-28T13:01:28;14.09;86.30
68257;DHT22;55069;51.568;4.656;2023-04-28T13:03:54;14.08;87.46
68257;DHT22;55069;51.568;4.656;2023-04-28T13:06:19;13.95;88.15
68257;DHT22;55069;51.568;4.656;2023-04-28T13:08:45;13.94;88.23
68257;DHT22;55069;51.568;4.656;2023-04-28T13:11:11;14.01;88.64
68257;DHT22;55069;51.568;4.656;2023-04-28T13:13:36;13.77;88.72
68257;DHT22;55069;51.568;4.656;2023-04-28T13:16:03;13.74;89.50
68257;DHT22;55069;51.568;4.656;2023-04-28T13:18:30;13.75;90.04
68257;DHT22;55069;51.568;4.656;2023-04-28T13:20:56;13.87;90.21
68257;DHT22;55069;51.568;4.656;2023-04-28T13:23:22;13.66;90.10
68257;DHT22;55069;51.568;4.656;2023-04-28T13:25:49;13.54;90.33
68257;DHT22;55069;51.568;4.656;2023-04-28T13:28:15;13.43;90.52
68257;DHT22;55069;51.568;4.656;2023-04-28T13:30:40;13.57;90.77
68257;DHT22;55069;51.568;4.656;2023-04-28T13:33:06;13.54;90.10
68257;DHT22;55069;51.568;4.656;2023-04-28T13:35:32;13.70;89.84
68257;DHT22;55069;51.568;4.656;2023-04-28T13:37:57;13.95;89.58
68257;DHT22;55069;51.568;4.656;2023-04-28T13:40:27;14.18;88.20
68257;DHT22;55069;51.568;4.656;2023-04-28T13:42:53;13.95;87.54
68257;DHT22;55069;51.568;4.656;2023-04-28T13:45:19;14.11;87.05
68257;DHT22;55069;51.568;4.656;2023-04-28T13:47:45;14.28;86.45
68257;DHT22;55069;51.568;4.656;2023-04-28T13:50:10;14.61;85.93
68257;DHT22;55069;51.568;4.656;2023-04-28T13:52:36;14.77;84.79
68257;DHT22;55069;51.568;4.656;2023-04-28T13:55:02;14.97;83.62
68257;DHT22;55069;51.568;4.656;2023-04-28T13:57:28;14.90;84.93
68257;DHT22;55069;51.568;4.656;2023-04-28T13:59:53;15.01;84.30
68257;DHT22;55069;51.568;4.656;2023-04-28T14:02:19;14.77;84.15
68257;DHT22;55069;51.568;4.656;2023-04-28T14:04:44;14.79;84.24
68257;DHT22;55069;51.568;4.656;2023-04-28T14:07:15;14.87;84.38
68257;DHT22;55069;51.568;4.656;2023-04-28T14:09:41;14.61;83.77
68257;DHT22;55069;51.568;4.656;2023-04-28T14:12:07;14.57;84.27
68257;DHT22;55069;51.568;4.656;2023-04-28T14:14:33;14.61;84.86
68257;DHT22;55069;51.568;4.656;2023-04-28T14:16:59;14.74;85.14
68257;DHT22;55069;51.568;4.656;2023-04-28T14:19:25;14.80;85.55
68257;DHT22;55069;51.568;4.656;2023-04-28T14:21:52;14.61;86.43
68257;DHT22;55069;51.568;4.656;2023-04-28T14:24:18;14.67;85.95
68257;DHT22;55069;51.568;4.656;2023-04-28T14:26:44;14.63;86.68
68257;DHT22;55069;51.568;4.656;2023-04-28T14:29:10;14.83;86.44
68257;DHT22;55069;51.568;4.656;2023-04-28T14:31:36;14.79;86.17
68257;DHT22;55069;51.568;4.656;2023-04-28T14:34:03;14.77;85.00
68257;DHT22;55069;51.568;4.656;2023-04-28T14:36:32;14.77;85.07
68257;DHT22;55069;51.568;4.656;2023-04-28T14:38:58;14.81;84.08
68257;DHT22;55069;51.568;4.656;2023-04-28T14:41:24;14.98;83.71
68257;DHT22;55069;51.568;4.656;2023-04-28T14:43:50;15.22;83.02
68257;DHT22;55069;51.568;4.656;2023-04-28T14:46:16;15.31;82.21
68257;DHT22;55069;51.568;4.656;2023-04-28T14:48:44;15.38;81.23
68257;DHT22;55069;51.568;4.656;2023-04-28T14:51:10;15.35;81.54
68257;DHT22;55069;51.568;4.656;2023-04-28T14:53:35;15.50;81.07
68257;DHT22;55069;51.568;4.656;2023-04-28T14:56:02;15.45;80.42
68257;DHT22;55069;51.568;4.656;2023-04-28T14:58:28;15.66;80.83
68257;DHT22;55069;51.568;4.656;2023-04-28T15:00:54;15.82;79.34
68257;DHT22;55069;51.568;4.656;2023-04-28T15:03:19;15.87;78.92
68257;DHT22;55069;51.568;4.656;2023-04-28T15:05:45;15.87;78.37
68257;DHT22;55069;51.568;4.656;2023-04-28T15:08:10;15.91;78.46
68257;DHT22;55069;51.568;4.656;2023-04-28T15:10:38;15.90;78.67
68257;DHT22;55069;51.568;4.656;2023-04-28T15:13:05;15.62;78.12
68257;DHT22;55069;51.568;4.656;2023-04-28T15:15:31;15.84;77.98
68257;DHT22;55069;51.568;4.656;2023-04-28T15:17:56;16.03;77.79
68257;DHT22;55069;51.568;4.656;2023-04-28T15:20:27;15.97;78.33
68257;DHT22;55069;51.568;4.656;2023-04-28T15:22:54;15.70;77.90
68257;DHT22;55069;51.568;4.656;2023-04-28T15:25:20;15.55;78.36
68257;DHT22;55069;51.568;4.656;2023-04-28T15:27:46;15.48;78.72
68257;DHT22;55069;51.568;4.656;2023-04-28T15:30:12;15.49;79.39
68257;DHT22;55069;51.568;4.656;2023-04-28T15:32:38;15.31;79.05
68257;DHT22;55069;51.568;4.656;2023-04-28T15:35:04;15.36;79.59
68257;DHT22;55069;51.568;4.656;2023-04-28T15:40:05;15.35;79.58
68257;DHT22;55069;51.568;4.656;2023-04-28T15:42:31;15.50;79.37
68257;DHT22;55069;51.568;4.656;2023-04-28T15:44:57;15.52;79.44
68257;DHT22;55069;51.568;4.656;2023-04-28T15:47:23;15.62;79.17
68257;DHT22;55069;51.568;4.656;2023-04-28T15:49:49;15.62;78.96
68257;DHT22;55069;51.568;4.656;2023-04-28T15:52:15;15.62;78.83
68257;DHT22;55069;51.568;4.656;2023-04-28T15:54:41;15.56;79.16
68257;DHT22;55069;51.568;4.656;2023-04-28T15:57:07;15.60;78.39
68257;DHT22;55069;51.568;4.656;2023-04-28T15:59:33;15.80;77.47
68257;DHT22;55069;51.568;4.656;2023-04-28T16:02:00;15.83;77.34
68257;DHT22;55069;51.568;4.656;2023-04-28T16:04:25;15.79;77.47
68257;DHT22;55069;51.568;4.656;2023-04-28T16:06:51;15.67;78.54
68257;DHT22;55069;51.568;4.656;2023-04-28T16:09:17;15.59;77.93
68257;DHT22;55069;51.568;4.656;2023-04-28T16:11:43;15.46;78.10
68257;DHT22;55069;51.568;4.656;2023-04-28T16:14:08;15.49;78.17